Pahranagat National Wildlife Refuge, Nevada Weather observations

Data are for 10 minute period ending at time listed.
 Day   Time   Solar   Ave.   Ave.  Ave.  Vector  Max.   Baro.   Total    
  of    of     Rad.   Air    Rel.  Wind   Wind   Wind  Press.  Precip.   
Year   Day            Temp.  Hum.  Speed  Dir.   Gust                    
2015   (PST)  Kw/m2    F      %     mph   deg.    mph    mb.     in.     
-------------------------------------------------------------------------
 242   13:50   0.27   91.3    19    9.3   165    15.1   897.9    0.00 
 242   14:00   0.29   91.2    19   10.0   159    20.5   897.7    0.00 
 242   14:10   0.33   91.5    18   11.3   142    19.3   897.5    0.00 
 242   14:20   0.32   92.2    18    9.8   164    20.4   897.4    0.00 
 242   14:30   0.29   92.4    17    8.1   198    15.5   897.4    0.00 
 242   14:40   0.28   92.3    16    7.7   200    14.6   897.4    0.00 
 242   14:50   0.53   93.4    16    6.3   244    12.6   897.4    0.00 
 242   15:00   0.49   94.6    15    8.2   244    14.8   897.4    0.00 
 242   15:10   0.46   94.2    15    6.4   233    12.9   897.6    0.00 
 242   15:20   0.41   94.2    14    5.3   233    10.7   897.5    0.00 
 242   15:30   0.43   94.2    14    8.7   226    15.4   897.5    0.00 
 242   15:40   0.36   93.3    14    6.8   232    14.3   897.5    0.00 
 242   15:50   0.34   93.2    14    7.5   251    14.1   897.4    0.00 
 242   16:00   0.37   94.2    13    5.7   224    12.1   897.3    0.00 
 242   16:10   0.34   94.7    14    3.7   191     9.3   897.2    0.00 
 242   16:20   0.24   94.0    13    5.1   254    11.5   897.2    0.00 
 242   16:30   0.24   91.8    14    4.3   254     9.3   897.1    0.00 
 242   16:40   0.24   92.5    13    5.7   238    11.1   897.1    0.00 
 242   16:50   0.21   91.7    13    4.9   245    10.7   897.0    0.00 
 242   17:00   0.18   92.2    13    2.7   242     6.6   896.9    0.00 
 242   17:10   0.13   91.2    14    2.9   250     5.3   896.9    0.00 
 242   17:20   0.12   90.1    14    4.0   235     8.6   896.8    0.00 
 242   17:30   0.10   88.7    15    4.0   254     6.8   896.7    0.00 
 242   17:40   0.08   87.0    15    4.4   246     6.6   896.7    0.00 
 242   17:50   0.03   86.0    14    4.3   258     7.7   896.5    0.00 
 242   18:00   0.01   83.8    16    3.1   240     5.4   896.4    0.00 
 242   18:10   0.01   82.5    17    3.0   236     4.2   896.3    0.00 
 242   18:20   0.00   81.8    18    3.8   256     6.0   896.3    0.00 
 242   18:30   0.00   80.3    21    2.8   295     6.9   896.3    0.00 
 242   18:40   0.00   80.4    22    3.2   299     6.6   896.3    0.00 
 242   18:50   0.00   79.3    22    2.7   277     6.9   896.5    0.00 
 242   19:00   0.00   80.0    22    0.8   256     3.8   896.7    0.00 
 242   19:10   0.00   80.0    21    1.3    88     2.8   896.9    0.00 
 242   19:20   0.00   80.6    20    2.3    77     4.9   897.1    0.00 
 242   19:30   0.00   79.4    21    3.0    87     5.4   897.3    0.00 
 242   19:40   0.00   78.9    21    2.2    90     3.5   897.5    0.00 
 242   19:50   0.00   80.1    20    3.5   103     4.7   897.6    0.00 
 242   20:00   0.00   81.0    19    4.7    89     6.6   897.7    0.00 
 242   20:10   0.00   74.0    30    1.9   170     3.1   897.8    0.00 
 242   20:20   0.00   70.9    33    2.1   130     3.9   897.8    0.00 
 242   20:30   0.00   72.3    30    2.8   332     4.7   897.9    0.00 
 242   20:40   0.00   71.3    33    2.6   196     4.7   898.1    0.00 
 242   20:50   0.00   71.9    30    3.7   134     5.8   898.2    0.00 
 242   21:00   0.00   68.5    36    2.6   305     5.0   898.3    0.00 
 242   21:10   0.00   71.2    29    3.6    49     5.0   898.4    0.00 
 242   21:20   0.00   74.0    26    1.0    83     2.9   898.4    0.00 
 242   21:30   0.00   72.2    29    1.2   106     3.9   898.5    0.00 
 242   21:40   0.00   66.6    41    2.0   315     3.9   898.5    0.00 
 242   21:50   0.00   63.2    48    3.0   322     5.0   898.5    0.00 
 242   22:00   0.00   63.7    46    2.8   302     4.4   898.6    0.00 
 242   22:10   0.00   61.8    52    1.3   158     2.5   898.7    0.00 
 242   22:20   0.00   61.5    49    1.8    34     3.6   898.8    0.00 
 242   22:30   0.00   66.8    33    2.8    46     3.5   898.8    0.00 
 242   22:40   0.00   64.8    40    1.3   292     2.4   899.0    0.00 
 242   22:50   0.00   59.2    58    0.6   199     2.1   899.0    0.00 
 242   23:00   0.00   61.3    46    1.1    41     2.2   899.1    0.00 
 242   23:10   0.00   60.6    50    1.0   314     3.3   899.1    0.00 
 242   23:20   0.00   56.3    65    3.2   340     5.4   899.1    0.00 
 242   23:30   0.00   60.5    48    2.7   358     4.2   899.1    0.00 
 242   23:40   0.00   59.1    54    2.3   308     5.4   899.2    0.00 
 242   23:50   0.00   55.0    67    1.8   332     2.9   899.2    0.00 
 243    0:00   0.00   57.7    55    2.3    19     3.2   899.4    0.00 
 243    0:10   0.00   62.1    43    0.6    13     2.0   899.4    0.00 
 243    0:20   0.00   57.9    58    2.4   303     4.1   899.5    0.00 
 243    0:30   0.00   53.9    69    2.7   356     3.7   899.5    0.00 
 243    0:40   0.00   58.4    52    0.5   300     1.8   899.5    0.00 
 243    0:50   0.00   58.2    52    0.3   284     1.3   899.5    0.00 
 243    1:00   0.00   59.5    52    0.8    45     1.8   899.4    0.00 
 243    1:10   0.00   61.8    49    1.5    15     2.9   899.4    0.00 
 243    1:20   0.00   60.2    52    1.7   347     3.1   899.4    0.00 
 243    1:30   0.00   55.1    73    2.0   290     2.9   899.5    0.00 
 243    1:40   0.00   53.3    78    1.7   331     2.4   899.5    0.00 
 243    1:50   0.00   54.5    68    0.9     9     2.0   899.6    0.00 
 243    2:00   0.00   56.3    60    1.9     4     2.4   899.7    0.00 
 243    2:10   0.00   55.1    61    3.0   328     5.3   899.8    0.00 
 243    2:20   0.00   51.4    72    0.9   247     2.5   899.9    0.00 
 243    2:30   0.00   52.5    73    1.0   177     2.6   899.9    0.00 
 243    2:40   0.00   53.8    69    1.3   279     2.4   900.0    0.00 
 243    2:50   0.00   54.1    66    2.8   333     3.9   899.9    0.00 
 243    3:00   0.00   53.7    68    2.4   350     3.4   900.1    0.00 
 243    3:10   0.00   57.2    57    2.8   345     4.5   900.1    0.00 
 243    3:20   0.00   56.4    59    2.1   317     3.2   900.2    0.00 
 243    3:30   0.00   54.7    66    1.7   283     2.9   900.3    0.00 
 243    3:40   0.00   55.1    62    1.8   352     3.2   900.3    0.00 
 243    3:50   0.00   56.1    62    2.3   313     4.7   900.3    0.00 
 243    4:00   0.00   55.4    63    1.1   293     2.2   900.4    0.00 
 243    4:10   0.00   54.4    64    0.9    59     2.5   900.5    0.00 
 243    4:20   0.00   57.1    56    1.4    26     2.2   900.5    0.00 
 243    4:30   0.00   55.2    63    1.2   294     2.9   900.6    0.00 
 243    4:40   0.00   53.0    68    1.2     8     2.2   900.7    0.00 
 243    4:50   0.00   53.6    65    1.3   299     2.4   900.8    0.00 
 243    5:00   0.00   52.2    71    1.4   290     2.6   900.9    0.00 
 243    5:10   0.00   52.1    71    1.7    58     2.6   901.0    0.00 
 243    5:20   0.00   53.8    62    1.2    30     3.4   900.9    0.00 
 243    5:30   0.01   50.9    75    2.3   317     3.5   901.1    0.00 
 243    5:40   0.01   52.5    72    2.0    63     3.1   901.2    0.00 
 243    5:50   0.04   53.0    70    0.4   216     2.9   901.4    0.00 
 243    6:00   0.05   52.6    76    1.2   235     2.9   901.5    0.00 
 243    6:10   0.08   55.1    70    1.7    79     2.6   901.6    0.00 
 243    6:20   0.12   60.1    60    0.5    84     1.3   901.7    0.00 
 243    6:30   0.15   65.1    49    0.5   227     2.6   901.8    0.00 
 243    6:40   0.17   65.1    49    1.6   326     4.3   902.0    0.00 
 243    6:50   0.20   67.1    48    2.5   295     5.0   902.1    0.00 
 243    7:00   0.23   69.2    41    3.3   296     5.5   902.1    0.00 
 243    7:10   0.25   71.1    38    3.2   296     5.3   902.0    0.00 
 243    7:20   0.28   72.8    33    4.9   323     9.3   901.9    0.00 
 243    7:30   0.31   73.8    31    4.7   334     9.6   901.8    0.00 
 243    7:40   0.33   75.1    30    4.7   347     7.2   901.8    0.00 
 243    7:50   0.36   76.5    28    5.0   326     7.7   901.7    0.00 
 243    8:00   0.39   77.8    27    5.0   304     8.3   901.6    0.00 
 243    8:10   0.41   79.0    26    4.8   322     8.0   901.5    0.00 
 243    8:20   0.43   80.2    25    4.8   320     7.9   901.4    0.00 
 243    8:30   0.46   81.0    24    4.8   340     7.5   901.4    0.00 
 243    8:40   0.48   82.1    24    4.2   337     7.2   901.3    0.00 
 243    8:50   0.50   83.6    23    5.2   330     7.7   901.3    0.00 
 243    9:00   0.52   84.8    21    3.6   329     6.8   901.3    0.00 
 243    9:10   0.54   85.9    18    2.2   310     5.8   901.3    0.00 
 243    9:20   0.56   86.9    18    2.6   296     5.0   901.4    0.00 
 243    9:30   0.58   87.3    18    1.6   235     4.1   901.4    0.00 
 243    9:40   0.60   89.4    18    2.5   162     5.9   901.4    0.00 
 243    9:50   0.61   89.6    19    5.3   162     9.3   901.4    0.00 
 243   10:00   0.63   89.8    19    6.2   158    15.4   901.4    0.00 
 243   10:10   0.64   89.8    20    9.1   164    15.3   901.4    0.00 
 243   10:20   0.66   89.9    20    9.3   141    15.7   901.3    0.00 
 243   10:30   0.67   90.1    19   10.0   139    16.2   901.2    0.00 
 243   10:40   0.68   90.2    19    9.6   140    16.3   901.1    0.00 
 243   10:50   0.69   90.9    19    9.2   155    16.1   901.1    0.00 
 243   11:00   0.69   91.2    19   10.4   142    16.5   901.0    0.00 
 243   11:10   0.70   91.3    19    9.9   142    17.5   900.9    0.00 
 243   11:20   0.70   91.7    18    7.4   148    13.4   900.8    0.00 
 243   11:30   0.71   91.9    18    9.3   148    18.7   900.7    0.00 
 243   11:40   0.71   92.2    18   10.0   138    16.1   900.5    0.00 
 243   11:50   0.71   92.1    18    8.4   140    15.4   900.5    0.00 
 243   12:00   0.71   92.5    18    8.3   142    12.6   900.4    0.00 
 243   12:10   0.71   93.0    18    9.2   151    14.7   900.3    0.00 
 243   12:20   0.71   92.9    18    6.6   131    14.6   900.3    0.00 
 243   12:30   0.70   93.7    17    7.9   146    15.8   900.1    0.00 
 243   12:40   0.69   93.5    17    7.1   128    13.2   899.9    0.00 
 243   12:50   0.69   93.8    17    7.5   144    14.8   899.8    0.00 
 243   13:00   0.68   93.7    16    9.9   141    18.1   899.7    0.00 
 243   13:10   0.67   93.4    16   11.5   128    20.0   899.6    0.00 
 243   13:20   0.66   93.8    17    8.8   141    17.2   899.5    0.00 
 243   13:30   0.65   93.8    16    7.9   157    17.2   899.4    0.00 
 243   13:40   0.63   93.8    17   11.0   145    17.8   899.2    0.00 

Return to Pahranagat N. Wildlife Refuge graphs page.


Western Regional Climate Center,wrcc@dri.edu